createdAt,value
2019-02-06T00:01:26.780Z,55.48
2019-02-06T00:03:57.457Z,51.70
2019-02-06T00:06:27.877Z,54.27
2019-02-06T00:08:59.622Z,52.58
2019-02-06T00:11:30.219Z,50.95
2019-02-06T00:14:00.593Z,51.13
2019-02-06T00:16:30.969Z,50.28
2019-02-06T00:19:01.419Z,44.60
2019-02-06T00:21:31.917Z,45.10
2019-02-06T00:24:03.224Z,44.20
2019-02-06T00:26:33.794Z,47.45
2019-02-06T00:29:04.488Z,45.65
2019-02-06T00:31:34.989Z,44.70
2019-02-06T00:34:05.520Z,45.65
2019-02-06T00:36:36.295Z,41.10
2019-02-06T00:39:09.794Z,40.63
2019-02-06T00:41:40.418Z,41.53
2019-02-06T00:44:10.886Z,40.73
2019-02-06T00:46:41.346Z,42.93
2019-02-06T00:49:11.995Z,39.30
2019-02-06T00:51:43.356Z,44.60
2019-02-06T00:54:13.574Z,44.98
2019-02-06T00:56:43.793Z,43.15
2019-02-06T00:59:14.288Z,39.08
2019-02-06T01:01:44.662Z,42.23
2019-02-06T01:04:18.227Z,41.55
2019-02-06T01:06:48.612Z,46.00
2019-02-06T01:09:19.086Z,40.17
2019-02-06T01:11:49.430Z,48.80
2019-02-06T01:14:19.836Z,41.42
2019-02-06T01:16:50.367Z,42.17
2019-02-06T01:19:20.716Z,38.45
2019-02-06T01:21:50.959Z,40.23
2019-02-06T01:24:21.667Z,47.00
2019-02-06T01:26:51.950Z,44.53
2019-02-06T01:29:22.140Z,46.42
2019-02-06T01:31:53.123Z,43.42
2019-02-06T01:34:23.377Z,42.48
2019-02-06T01:36:53.564Z,41.58
2019-02-06T01:39:23.764Z,50.63
2019-02-06T01:41:54.013Z,51.05
2019-02-06T01:44:24.222Z,44.93
2019-02-06T01:46:54.358Z,47.40
2019-02-06T01:49:24.596Z,47.55
2019-02-06T01:51:54.772Z,47.60
2019-02-06T01:54:25.070Z,44.18
2019-02-06T01:56:56.265Z,47.93
2019-02-06T01:59:26.870Z,47.75
2019-02-06T02:01:57.076Z,47.70
2019-02-06T02:04:27.322Z,49.13
2019-02-06T02:06:57.563Z,41.25
2019-02-06T02:09:28.719Z,44.67
2019-02-06T02:11:58.930Z,43.48
2019-02-06T02:14:29.434Z,45.43
2019-02-06T02:16:59.649Z,47.43
2019-02-06T02:19:30.043Z,47.50
2019-02-06T02:22:00.199Z,41.45
2019-02-06T02:24:30.403Z,40.45
2019-02-06T02:27:00.553Z,37.80
2019-02-06T02:29:30.765Z,38.58
2019-02-06T02:32:01.113Z,37.42
2019-02-06T02:34:31.460Z,40.10
2019-02-06T02:37:01.646Z,34.83
2019-02-06T02:39:31.809Z,33.55
2019-02-06T02:42:02.354Z,38.28
2019-02-06T02:44:32.577Z,37.65
2019-02-06T02:47:03.151Z,35.98
2019-02-06T02:49:33.383Z,38.45
2019-02-06T02:52:03.770Z,33.73
2019-02-06T02:54:34.087Z,33.60
2019-02-06T02:57:04.547Z,35.43
2019-02-06T02:59:34.889Z,34.78
2019-02-06T03:02:30.247Z,32.90
2019-02-06T03:05:05.190Z,35.40
2019-02-06T03:07:36.487Z,36.35
2019-02-06T03:10:07.523Z,37.70
2019-02-06T03:12:37.806Z,34.73
2019-02-06T03:15:08.843Z,33.30
2019-02-06T03:17:39.374Z,33.78
2019-02-06T03:20:10.838Z,35.20
2019-02-06T03:22:41.040Z,35.38
2019-02-06T03:25:11.999Z,36.05
2019-02-06T03:27:42.333Z,33.83
2019-02-06T03:30:14.823Z,35.08
2019-02-06T03:32:45.135Z,32.95
2019-02-06T03:35:18.316Z,35.73
2019-02-06T03:37:48.485Z,33.58
2019-02-06T03:40:18.749Z,37.25
2019-02-06T03:42:48.894Z,40.05
2019-02-06T03:45:21.321Z,35.92
2019-02-06T03:47:54.462Z,37.03
2019-02-06T03:50:24.612Z,34.23
2019-02-06T03:52:55.111Z,33.30
2019-02-06T03:55:25.241Z,31.97
2019-02-06T03:57:55.505Z,32.80
2019-02-06T04:00:25.570Z,35.83
2019-02-06T04:02:56.083Z,35.35
2019-02-06T04:05:32.679Z,36.63
2019-02-06T04:08:03.081Z,37.45
2019-02-06T04:10:33.297Z,32.55
2019-02-06T04:13:03.422Z,36.45
2019-02-06T04:15:33.695Z,37.63
2019-02-06T04:18:09.688Z,34.88
2019-02-06T04:20:43.741Z,34.83
2019-02-06T04:23:16.942Z,37.00
2019-02-06T04:25:47.176Z,34.00
2019-02-06T04:28:22.835Z,35.08
2019-02-06T04:30:53.210Z,33.40
2019-02-06T04:33:31.982Z,38.73
2019-02-06T04:35:58.980Z,40.60
2019-02-06T04:38:29.330Z,41.75
2019-02-06T04:40:59.608Z,38.88
2019-02-06T04:43:31.064Z,37.17
2019-02-06T04:46:08.972Z,38.08
2019-02-06T04:48:42.607Z,41.45
2019-02-06T04:51:12.928Z,40.52
2019-02-06T04:53:43.073Z,36.80
2019-02-06T04:56:13.311Z,38.60
2019-02-06T04:58:43.789Z,38.10
2019-02-06T05:01:32.166Z,41.35
2019-02-06T05:04:02.086Z,38.98
2019-02-06T05:06:32.230Z,35.25
2019-02-06T05:09:03.042Z,41.73
2019-02-06T05:11:35.082Z,40.65
2019-02-06T05:14:05.634Z,40.80
2019-02-06T05:16:43.180Z,37.85
2019-02-06T05:19:13.432Z,36.20
2019-02-06T05:21:43.617Z,34.60
2019-02-06T05:24:13.768Z,37.50
2019-02-06T05:26:49.688Z,36.17
2019-02-06T05:29:20.181Z,39.27
2019-02-06T05:32:00.154Z,35.15
2019-02-06T05:34:33.348Z,34.53
2019-02-06T05:37:03.545Z,34.92
2019-02-06T05:39:33.768Z,38.70
2019-02-06T05:42:04.012Z,37.38
2019-02-06T05:44:35.242Z,37.53
2019-02-06T05:47:06.869Z,35.33
2019-02-06T05:49:37.540Z,36.33
2019-02-06T05:52:10.519Z,33.08
2019-02-06T05:54:40.735Z,34.35
2019-02-06T05:57:10.842Z,34.30
2019-02-06T05:59:41.062Z,32.03
2019-02-06T06:02:12.207Z,34.60
2019-02-06T06:04:42.731Z,32.55
2019-02-06T06:07:12.842Z,34.08
2019-02-06T06:09:43.035Z,33.70
2019-02-06T06:12:13.322Z,33.92
2019-02-06T06:14:43.467Z,36.55
2019-02-06T06:17:13.623Z,32.78
2019-02-06T06:19:44.099Z,33.70
2019-02-06T06:22:14.220Z,31.80
2019-02-06T06:24:44.420Z,34.45
2019-02-06T06:27:14.599Z,32.63
2019-02-06T06:29:44.763Z,30.32
2019-02-06T06:32:15.239Z,33.05
2019-02-06T06:34:45.720Z,31.20
2019-02-06T06:37:16.247Z,30.77
2019-02-06T06:39:46.421Z,32.73
2019-02-06T06:42:16.565Z,31.42
2019-02-06T06:44:46.755Z,31.05
2019-02-06T06:47:16.905Z,32.90
2019-02-06T06:49:48.257Z,29.60
2019-02-06T06:52:18.465Z,28.17
2019-02-06T06:54:49.929Z,34.15
2019-02-06T06:57:22.077Z,31.12
2019-02-06T06:59:52.217Z,28.07
2019-02-06T07:02:23.933Z,27.45
2019-02-06T07:04:54.061Z,29.35
2019-02-06T07:07:24.248Z,29.92
2019-02-06T07:09:55.598Z,32.53
2019-02-06T07:12:26.023Z,30.65
2019-02-06T07:14:56.525Z,35.55
2019-02-06T07:17:26.757Z,30.82
2019-02-06T07:19:56.919Z,28.98
2019-02-06T07:22:27.928Z,27.48
2019-02-06T07:24:59.352Z,32.08
2019-02-06T07:27:29.615Z,31.85
2019-02-06T07:30:01.735Z,28.38
2019-02-06T07:32:32.245Z,30.88
2019-02-06T07:35:02.515Z,32.08
2019-02-06T07:37:33.128Z,35.10
2019-02-06T07:40:03.365Z,31.33
2019-02-06T07:42:33.897Z,29.12
2019-02-06T07:45:04.587Z,34.88
2019-02-06T07:47:37.827Z,24.85
2019-02-06T07:50:11.805Z,31.57
2019-02-06T07:52:42.058Z,32.53
2019-02-06T07:55:14.457Z,27.40
2019-02-06T07:57:44.611Z,29.07
2019-02-06T08:00:14.810Z,27.70
2019-02-06T08:02:45.052Z,26.57
2019-02-06T08:05:19.241Z,29.48
2019-02-06T08:07:49.880Z,28.87
2019-02-06T08:10:22.694Z,27.52
2019-02-06T08:12:52.898Z,25.77
2019-02-06T08:15:24.008Z,24.85
2019-02-06T08:17:54.381Z,34.20
2019-02-06T08:20:27.465Z,28.55
2019-02-06T08:22:57.955Z,25.20
2019-02-06T08:25:29.307Z,26.42
2019-02-06T08:27:59.469Z,27.52
2019-02-06T08:30:32.642Z,27.13
2019-02-06T08:33:02.738Z,26.97
2019-02-06T08:35:33.336Z,28.00
2019-02-06T08:38:05.728Z,25.80
2019-02-06T08:40:36.940Z,26.77
2019-02-06T08:43:07.073Z,29.02
2019-02-06T08:45:38.006Z,25.50
2019-02-06T08:48:07.938Z,25.92
2019-02-06T08:50:38.117Z,28.00
2019-02-06T08:53:08.274Z,26.57
2019-02-06T08:55:38.396Z,28.38
2019-02-06T08:58:08.544Z,26.55
2019-02-06T09:00:40.434Z,25.40
2019-02-06T09:03:12.064Z,27.60
2019-02-06T09:05:42.210Z,26.70
2019-02-06T09:08:12.410Z,27.62
2019-02-06T09:10:42.521Z,31.95
2019-02-06T09:13:12.856Z,24.72
2019-02-06T09:15:42.977Z,24.45
2019-02-06T09:18:13.132Z,31.23
2019-02-06T09:20:44.384Z,24.20
2019-02-06T09:23:14.572Z,29.00
2019-02-06T09:25:44.767Z,28.23
2019-02-06T09:28:16.166Z,27.60
2019-02-06T09:30:46.568Z,36.33
2019-02-06T09:33:16.740Z,29.98
2019-02-06T09:35:46.911Z,27.42
2019-02-06T09:38:19.021Z,29.98
2019-02-06T09:40:49.712Z,27.27
2019-02-06T09:43:19.991Z,28.60
2019-02-06T09:45:50.330Z,26.25
2019-02-06T09:48:20.684Z,24.72
2019-02-06T09:50:50.855Z,34.30
2019-02-06T09:53:20.969Z,27.20
2019-02-06T09:55:53.321Z,24.07
2019-02-06T09:58:23.694Z,27.60
2019-02-06T10:00:53.877Z,26.23
2019-02-06T10:03:24.118Z,25.30
2019-02-06T10:05:54.660Z,25.08
2019-02-06T10:08:24.907Z,23.35
2019-02-06T10:10:56.051Z,22.82
2019-02-06T10:13:27.891Z,26.30
2019-02-06T10:15:59.767Z,24.10
2019-02-06T10:18:33.741Z,25.08
2019-02-06T10:21:12.219Z,23.10
2019-02-06T10:23:42.687Z,27.32
2019-02-06T10:26:13.726Z,28.40
2019-02-06T10:28:44.885Z,33.02
2019-02-06T10:31:15.077Z,25.62
2019-02-06T10:33:45.301Z,27.00
2019-02-06T10:36:15.912Z,28.42
2019-02-06T10:38:46.400Z,26.62
2019-02-06T10:41:16.654Z,26.35
2019-02-06T10:43:46.792Z,24.98
2019-02-06T10:46:19.189Z,25.23
2019-02-06T10:48:49.342Z,25.65
2019-02-06T10:51:19.567Z,24.80
2019-02-06T10:53:49.885Z,28.95
2019-02-06T10:56:20.216Z,23.27
2019-02-06T10:58:50.646Z,23.52
2019-02-06T11:01:21.134Z,25.23
2019-02-06T11:03:51.262Z,23.77
2019-02-06T11:06:24.166Z,21.37
2019-02-06T11:08:54.289Z,23.32
2019-02-06T11:11:26.229Z,22.80
2019-02-06T11:13:56.326Z,22.32
2019-02-06T11:16:32.066Z,25.80
2019-02-06T11:19:02.623Z,19.87
2019-02-06T11:21:32.959Z,18.65
2019-02-06T11:24:03.563Z,22.13
2019-02-06T11:26:33.915Z,21.55
2019-02-06T11:29:04.457Z,21.73
2019-02-06T11:31:35.172Z,23.35
2019-02-06T11:34:05.743Z,18.45
2019-02-06T11:36:38.017Z,22.25
2019-02-06T11:39:19.018Z,21.57
2019-02-06T11:41:49.295Z,23.57
2019-02-06T11:44:21.756Z,20.27
2019-02-06T11:46:52.192Z,20.02
2019-02-06T11:49:34.468Z,17.73
2019-02-06T11:52:05.366Z,21.27
2019-02-06T11:54:41.012Z,19.20
2019-02-06T11:57:11.770Z,18.92
2019-02-06T11:59:42.664Z,23.00
2019-02-06T12:02:15.193Z,18.48
2019-02-06T12:04:47.256Z,17.77
2019-02-06T12:07:18.224Z,19.48
2019-02-06T12:09:55.218Z,16.75
2019-02-06T12:12:33.318Z,18.75
2019-02-06T12:15:18.443Z,16.90
2019-02-06T12:17:50.094Z,17.87
2019-02-06T12:20:21.304Z,18.25
2019-02-06T12:22:52.478Z,19.07
2019-02-06T12:25:24.748Z,22.15
2019-02-06T12:27:55.929Z,19.17
2019-02-06T12:30:28.896Z,18.85
2019-02-06T12:33:02.682Z,20.17
2019-02-06T12:35:32.964Z,17.52
2019-02-06T12:38:04.179Z,17.73
2019-02-06T12:40:35.293Z,17.75
2019-02-06T12:43:06.642Z,18.85
2019-02-06T12:45:52.406Z,18.50
2019-02-06T12:48:23.170Z,16.42
2019-02-06T12:50:53.620Z,20.02
2019-02-06T12:53:23.999Z,16.70
2019-02-06T12:55:54.484Z,14.58
2019-02-06T12:58:27.477Z,17.92
2019-02-06T13:00:58.180Z,15.40
2019-02-06T13:03:51.298Z,16.40
2019-02-06T13:06:23.491Z,12.93
2019-02-06T13:08:54.328Z,16.27
2019-02-06T13:11:33.105Z,13.25
2019-02-06T13:14:06.142Z,17.40
2019-02-06T13:16:36.946Z,17.62
2019-02-06T13:19:08.982Z,17.67
2019-02-06T13:21:39.659Z,15.15
2019-02-06T13:24:10.334Z,12.90
2019-02-06T13:26:40.867Z,16.07
2019-02-06T13:29:14.179Z,14.35
2019-02-06T13:31:45.499Z,19.65
2019-02-06T13:34:18.600Z,16.40
2019-02-06T13:36:49.358Z,14.93
2019-02-06T13:39:22.794Z,15.72
2019-02-06T13:41:57.422Z,16.37
2019-02-06T13:44:27.606Z,12.88
2019-02-06T13:46:57.802Z,16.60
2019-02-06T13:49:27.942Z,15.38
2019-02-06T13:51:58.199Z,18.70
2019-02-06T13:54:31.969Z,15.75
2019-02-06T13:57:02.604Z,16.57
2019-02-06T13:59:32.883Z,13.45
2019-02-06T14:02:04.459Z,18.70
2019-02-06T14:04:34.804Z,12.65
2019-02-06T14:07:05.205Z,16.20
2019-02-06T14:09:35.862Z,13.80
2019-02-06T14:12:06.045Z,16.95
2019-02-06T14:14:36.304Z,12.20
2019-02-06T14:17:06.589Z,17.57
2019-02-06T14:19:37.158Z,15.20
2019-02-06T14:22:10.367Z,15.58
2019-02-06T14:24:48.065Z,16.35
2019-02-06T14:27:44.507Z,16.32
2019-02-06T14:31:12.789Z,15.13
2019-02-06T14:34:10.691Z,19.10
2019-02-06T14:37:14.532Z,13.20
2019-02-06T14:40:17.253Z,17.50
2019-02-06T14:43:13.779Z,17.55
2019-02-06T14:46:29.647Z,15.20
2019-02-06T14:49:40.165Z,13.90
2019-02-06T14:52:57.207Z,16.35
2019-02-06T14:56:09.175Z,21.17
2019-02-06T14:59:26.072Z,14.55
2019-02-06T15:02:48.819Z,18.65
2019-02-06T15:05:41.995Z,18.30
2019-02-06T15:09:14.072Z,12.05
2019-02-06T15:12:21.055Z,16.17
2019-02-06T15:15:25.868Z,17.95
2019-02-06T15:18:22.675Z,18.17
2019-02-06T15:21:32.898Z,14.28
2019-02-06T15:24:34.689Z,19.27
2019-02-06T15:27:46.947Z,17.00
2019-02-06T15:31:14.725Z,14.87
2019-02-06T15:34:33.605Z,19.27
2019-02-06T15:37:42.556Z,15.23
2019-02-06T15:40:52.763Z,17.48
2019-02-06T15:44:09.882Z,16.55
2019-02-06T15:47:10.232Z,21.97
2019-02-06T15:50:26.550Z,13.28
2019-02-06T15:53:57.138Z,16.65
2019-02-06T15:56:54.240Z,12.58
2019-02-06T15:59:56.202Z,16.05
2019-02-06T16:02:59.170Z,16.95
2019-02-06T16:06:16.639Z,16.07
2019-02-06T16:09:12.152Z,15.93
2019-02-06T16:12:23.332Z,12.23
2019-02-06T16:15:26.888Z,14.90
2019-02-06T16:18:40.012Z,15.28
2019-02-06T16:21:52.641Z,14.05
2019-02-06T16:24:50.277Z,16.32
2019-02-06T16:27:31.280Z,21.12
2019-02-06T16:30:18.928Z,13.43
2019-02-06T16:33:19.203Z,16.93
2019-02-06T16:40:27.453Z,21.52
2019-02-06T16:43:30.786Z,13.85
2019-02-06T16:46:42.483Z,15.05
2019-02-06T16:49:31.879Z,17.35
2019-02-06T16:52:52.253Z,15.30
2019-02-06T16:56:11.181Z,18.30
2019-02-06T16:59:20.737Z,16.52
2019-02-06T17:02:24.702Z,16.07
2019-02-06T17:05:32.747Z,18.42
2019-02-06T17:08:40.907Z,15.63
2019-02-06T17:12:10.239Z,14.18
2019-02-06T17:15:36.821Z,16.23
2019-02-06T17:18:39.710Z,16.73
2019-02-06T17:25:14.592Z,21.00
2019-02-06T17:28:03.088Z,17.20
2019-02-06T17:31:36.302Z,15.48
2019-02-06T17:35:08.551Z,13.68
2019-02-06T17:38:32.997Z,15.83
2019-02-06T17:41:44.920Z,13.55
2019-02-06T17:45:00.419Z,17.55
2019-02-06T17:48:20.454Z,16.52
2019-02-06T17:51:27.333Z,16.65
2019-02-06T17:54:21.339Z,16.67
2019-02-06T17:56:51.908Z,16.55
2019-02-06T17:59:24.763Z,19.40
2019-02-06T18:01:56.222Z,16.15
2019-02-06T18:04:33.141Z,19.00
2019-02-06T18:07:07.041Z,20.45
2019-02-06T18:09:40.698Z,16.10
2019-02-06T18:12:14.066Z,20.27
2019-02-06T18:14:44.485Z,18.95
2019-02-06T18:17:26.929Z,17.50
2019-02-06T18:20:03.589Z,15.98
2019-02-06T18:22:35.726Z,18.67
2019-02-06T18:25:07.127Z,18.30
2019-02-06T18:27:38.400Z,24.95
2019-02-06T18:30:15.712Z,23.25
2019-02-06T18:32:52.568Z,21.90
2019-02-06T18:35:23.344Z,19.37
2019-02-06T18:37:59.525Z,19.07
2019-02-06T18:40:34.151Z,17.37
2019-02-06T18:43:04.838Z,22.52
2019-02-06T18:45:36.842Z,17.80
2019-02-06T18:48:10.893Z,20.50
2019-02-06T18:50:41.554Z,15.00
2019-02-06T18:53:12.142Z,17.17
2019-02-06T18:55:43.984Z,16.15
2019-02-06T18:58:27.928Z,16.97
2019-02-06T19:00:59.158Z,17.20
2019-02-06T19:03:34.947Z,15.28
2019-02-06T19:06:06.646Z,16.42
2019-02-06T19:08:40.446Z,16.95
2019-02-06T19:11:12.017Z,16.00
2019-02-06T19:13:42.226Z,15.35
2019-02-06T19:16:12.602Z,20.62
2019-02-06T19:18:44.315Z,17.05
2019-02-06T19:21:26.624Z,17.57
2019-02-06T19:24:00.675Z,18.10
2019-02-06T19:26:34.482Z,19.23
2019-02-06T19:29:05.339Z,17.37
2019-02-06T19:31:39.680Z,18.20
2019-02-06T19:34:15.859Z,15.85
2019-02-06T19:36:49.851Z,19.23
2019-02-06T19:39:20.210Z,16.50
2019-02-06T19:41:51.860Z,19.42
2019-02-06T19:44:22.286Z,15.10
2019-02-06T19:46:53.053Z,15.45
2019-02-06T19:49:37.691Z,21.25
2019-02-06T19:52:11.077Z,14.38
2019-02-06T19:54:41.271Z,16.42
2019-02-06T19:57:11.554Z,15.23
2019-02-06T19:59:42.386Z,15.53
2019-02-06T20:02:13.636Z,16.73
2019-02-06T20:04:43.884Z,16.02
2019-02-06T20:07:14.210Z,15.75
2019-02-06T20:09:45.656Z,17.60
2019-02-06T20:12:18.037Z,16.85
2019-02-06T20:14:50.384Z,15.55
2019-02-06T20:17:37.974Z,14.98
2019-02-06T20:20:10.582Z,17.27
2019-02-06T20:22:41.648Z,15.08
2019-02-06T20:25:12.797Z,16.82
2019-02-06T20:27:43.400Z,14.13
2019-02-06T20:30:16.810Z,14.93
2019-02-06T20:33:04.290Z,18.92
2019-02-06T20:35:43.079Z,20.65
2019-02-06T20:38:13.566Z,15.95
2019-02-06T20:40:45.920Z,16.55
2019-02-06T20:43:22.121Z,17.02
2019-02-06T20:46:02.168Z,17.82
2019-02-06T20:48:32.622Z,15.78
2019-02-06T20:51:06.052Z,14.93
2019-02-06T20:53:36.318Z,15.65
2019-02-06T20:56:06.554Z,16.37
2019-02-06T20:58:39.514Z,20.77
2019-02-06T21:01:12.029Z,20.25
2019-02-06T21:03:42.715Z,17.85
2019-02-06T21:06:19.350Z,17.02
2019-02-06T21:08:50.262Z,15.63
2019-02-06T21:11:20.624Z,18.57
2019-02-06T21:13:52.941Z,13.88
2019-02-06T21:16:24.453Z,18.92
2019-02-06T21:18:54.872Z,13.18
2019-02-06T21:21:25.038Z,14.93
2019-02-06T21:23:55.267Z,17.70
2019-02-06T21:26:25.849Z,14.38
2019-02-06T21:28:56.009Z,16.57
2019-02-06T21:31:26.369Z,16.35
2019-02-06T21:33:56.675Z,14.05
2019-02-06T21:36:26.944Z,16.02
2019-02-06T21:38:59.664Z,17.48
2019-02-06T21:41:30.023Z,16.30
2019-02-06T21:44:02.522Z,15.65
2019-02-06T21:46:32.817Z,17.35
2019-02-06T21:49:03.018Z,13.62
2019-02-06T21:51:33.322Z,16.87
2019-02-06T21:54:03.895Z,14.03
2019-02-06T21:56:34.551Z,18.37
2019-02-06T21:59:06.332Z,15.35
2019-02-06T22:01:37.095Z,15.68
2019-02-06T22:04:07.391Z,15.18
2019-02-06T22:06:37.634Z,18.25
2019-02-06T22:09:12.260Z,18.20
2019-02-06T22:11:42.579Z,15.25
2019-02-06T22:14:13.141Z,17.07
2019-02-06T22:16:43.332Z,18.67
2019-02-06T22:19:13.577Z,21.48
2019-02-06T22:21:47.795Z,16.52
2019-02-06T22:24:18.093Z,17.85
2019-02-06T22:26:48.269Z,17.02
2019-02-06T22:29:18.753Z,17.45
2019-02-06T22:31:49.429Z,17.02
2019-02-06T22:34:20.025Z,17.02
2019-02-06T22:36:50.513Z,18.05
2019-02-06T22:39:21.283Z,19.48
2019-02-06T22:41:51.513Z,19.23
2019-02-06T22:44:23.224Z,18.23
2019-02-06T22:46:53.699Z,22.40
2019-02-06T22:49:23.861Z,19.95
2019-02-06T22:51:55.218Z,17.82
2019-02-06T22:54:25.355Z,17.62
2019-02-06T22:56:56.125Z,19.35
2019-02-06T22:59:26.312Z,20.02
2019-02-06T23:02:02.278Z,20.77
2019-02-06T23:04:32.891Z,20.90
2019-02-06T23:07:03.107Z,19.35
2019-02-06T23:09:35.690Z,20.60
2019-02-06T23:12:06.567Z,19.55
2019-02-06T23:14:36.732Z,19.52
2019-02-06T23:17:14.238Z,17.37
2019-02-06T23:19:48.954Z,16.65
2019-02-06T23:22:19.213Z,22.52
2019-02-06T23:24:49.930Z,21.20
2019-02-06T23:27:38.459Z,20.55
2019-02-06T23:30:09.520Z,23.20
2019-02-06T23:32:40.607Z,18.20
2019-02-06T23:35:10.934Z,20.57
2019-02-06T23:37:41.056Z,23.73
2019-02-06T23:40:11.758Z,21.70
2019-02-06T23:42:41.985Z,22.13
2019-02-06T23:45:13.000Z,22.10
2019-02-06T23:47:43.535Z,21.57
2019-02-06T23:50:14.338Z,23.45
2019-02-06T23:52:48.209Z,19.65
2019-02-06T23:55:18.360Z,20.80
2019-02-06T23:57:51.813Z,20.82
